Time;durP1;ratioP1;P1;durP2;ratioP2;P2;SDS_P1;SDS_P2;PMS_P1;PMS_P2;Temp;Humidity;BMP_temperature;BMP_pressure;BME280_temperature;BME280_humidity;BME280_pressure;Samples;Min_cycle;Max_cycle;Signal;HPM_P1;HPM_P2
2022/12/24 00:01:22;;;;;;;;;;;18.60;65.90;;;;;;4457404;32;19967;-73
2022/12/24 00:03:48;;;;;;;;;;;18.60;65.90;;;;;;4457814;32;20437;-73
2022/12/24 00:06:17;;;;;;;;;;;18.60;65.90;;;;;;4457005;32;20060;-73
2022/12/24 00:08:43;;;;;;;;;;;18.50;65.80;;;;;;4458163;32;19990;-73
2022/12/24 00:11:09;;;;;;;;;;;18.50;65.90;;;;;;4458611;32;20092;-72
2022/12/24 00:13:34;;;;;;;;;;;18.50;65.90;;;;;;4459066;32;19986;-73
2022/12/24 00:16:06;;;;;;;;;;;18.50;65.80;;;;;;4457398;32;19982;-73
2022/12/24 00:18:31;;;;;;;;;;;18.50;65.80;;;;;;4457648;32;19981;-73
2022/12/24 00:20:57;;;;;;;;;;;18.50;65.90;;;;;;4457728;32;20534;-73
2022/12/24 00:23:23;;;;;;;;;;;18.40;65.80;;;;;;4456520;32;19989;-72
2022/12/24 00:25:49;;;;;;;;;;;18.50;65.80;;;;;;4458299;32;19989;-73
2022/12/24 00:28:15;;;;;;;;;;;18.40;65.80;;;;;;4457924;32;20412;-73
2022/12/24 00:30:41;;;;;;;;;;;18.40;65.80;;;;;;4459516;32;19982;-73
2022/12/24 00:33:07;;;;;;;;;;;18.40;65.70;;;;;;4462060;32;19963;-73
2022/12/24 00:35:33;;;;;;;;;;;18.40;65.70;;;;;;4458289;32;20097;-73
2022/12/24 00:38:02;;;;;;;;;;;18.40;65.70;;;;;;4461043;32;19970;-73
2022/12/24 00:40:28;;;;;;;;;;;18.40;65.70;;;;;;4459090;32;20046;-73
2022/12/24 00:42:54;;;;;;;;;;;18.40;65.70;;;;;;4444250;32;20044;-73
2022/12/24 00:45:20;;;;;;;;;;;18.40;65.70;;;;;;4461075;32;20100;-73
2022/12/24 00:47:46;;;;;;;;;;;18.40;65.70;;;;;;4446744;32;20525;-73
2022/12/24 00:50:11;;;;;;;;;;;18.40;65.70;;;;;;4461186;32;19970;-73
2022/12/24 00:52:37;;;;;;;;;;;18.30;65.60;;;;;;4460294;32;20458;-73
2022/12/24 00:55:03;;;;;;;;;;;18.30;65.70;;;;;;4461090;32;20104;-72
2022/12/24 00:57:37;;;;;;;;;;;18.40;65.70;;;;;;4461575;32;20126;-73
2022/12/24 01:00:03;;;;;;;;;;;18.30;65.70;;;;;;4460120;32;20006;-73
2022/12/24 01:02:29;;;;;;;;;;;18.30;65.70;;;;;;4461103;32;20587;-73
2022/12/24 01:05:10;;;;;;;;;;;18.30;65.70;;;;;;4461054;32;20400;-73
2022/12/24 01:07:42;;;;;;;;;;;18.30;65.70;;;;;;4460663;32;19994;-73
2022/12/24 01:10:09;;;;;;;;;;;18.30;65.70;;;;;;4457887;32;20414;-73
2022/12/24 01:12:36;;;;;;;;;;;18.30;65.70;;;;;;4460123;32;20018;-73
2022/12/24 01:15:02;;;;;;;;;;;18.20;65.60;;;;;;4459280;32;19994;-73
2022/12/24 01:17:32;;;;;;;;;;;18.30;65.70;;;;;;4460758;32;20350;-73
2022/12/24 01:19:58;;;;;;;;;;;18.20;65.60;;;;;;4459706;32;19981;-73
2022/12/24 01:22:24;;;;;;;;;;;18.20;65.60;;;;;;4451114;32;19967;-73
2022/12/24 01:24:50;;;;;;;;;;;18.20;65.60;;;;;;4440576;32;20419;-73
2022/12/24 01:27:24;;;;;;;;;;;18.20;65.60;;;;;;4450798;32;19983;-73
2022/12/24 01:29:52;;;;;;;;;;;18.20;65.60;;;;;;4454314;32;19993;-73
2022/12/24 01:32:20;;;;;;;;;;;18.20;65.60;;;;;;4452142;32;19975;-73
2022/12/24 01:34:51;;;;;;;;;;;18.20;65.60;;;;;;4460023;32;19986;-73
2022/12/24 01:37:17;;;;;;;;;;;18.10;65.50;;;;;;4458750;32;20162;-72
2022/12/24 01:39:42;;;;;;;;;;;18.20;65.60;;;;;;4460506;32;20407;-73
2022/12/24 01:45:22;;;;;;;;;;;18.20;65.60;;;;;;4461296;32;19986;-73
2022/12/24 01:47:48;;;;;;;;;;;18.10;65.60;;;;;;4459816;32;20080;-73
2022/12/24 01:50:16;;;;;;;;;;;18.10;65.50;;;;;;4460307;32;20152;-73
2022/12/24 01:52:42;;;;;;;;;;;18.10;65.50;;;;;;4459156;32;20057;-73
2022/12/24 01:55:10;;;;;;;;;;;18.10;65.60;;;;;;4460708;32;19978;-73
2022/12/24 01:57:38;;;;;;;;;;;18.10;65.50;;;;;;4460996;32;20024;-73
2022/12/24 02:00:06;;;;;;;;;;;18.10;65.60;;;;;;4461213;32;19986;-73
2022/12/24 02:02:32;;;;;;;;;;;18.10;65.50;;;;;;4461697;32;20423;-73
2022/12/24 02:05:14;;;;;;;;;;;18.10;65.50;;;;;;4457427;32;20168;-73
2022/12/24 02:07:40;;;;;;;;;;;18.10;65.50;;;;;;4459458;32;20002;-73
2022/12/24 02:10:08;;;;;;;;;;;18.00;65.50;;;;;;4458467;32;20068;-73
2022/12/24 02:12:35;;;;;;;;;;;18.00;65.50;;;;;;4459995;32;20008;-73
2022/12/24 02:15:03;;;;;;;;;;;18.00;65.40;;;;;;4459724;32;20048;-73
2022/12/24 02:17:48;;;;;;;;;;;18.00;65.50;;;;;;4461698;32;19974;-73
2022/12/24 02:20:32;;;;;;;;;;;18.00;65.50;;;;;;4460795;32;19990;-73
2022/12/24 02:23:10;;;;;;;;;;;18.00;65.50;;;;;;4461501;32;19986;-73
2022/12/24 02:25:55;;;;;;;;;;;18.00;65.50;;;;;;4461866;32;20175;-73
2022/12/24 02:28:20;;;;;;;;;;;18.00;65.50;;;;;;4460729;32;19970;-73
2022/12/24 02:30:49;;;;;;;;;;;18.00;65.40;;;;;;4461512;32;20545;-73
2022/12/24 02:33:18;;;;;;;;;;;18.00;65.50;;;;;;4461952;32;20112;-73
2022/12/24 02:36:05;;;;;;;;;;;18.00;66.30;;;;;;4461751;32;19985;-73
2022/12/24 02:38:53;;;;;;;;;;;18.00;65.50;;;;;;4461236;32;20072;-73
2022/12/24 02:41:22;;;;;;;;;;;18.00;65.50;;;;;;4461786;32;20035;-73
2022/12/24 02:43:50;;;;;;;;;;;17.90;65.40;;;;;;4460886;32;20112;-72
2022/12/24 02:46:24;;;;;;;;;;;18.00;65.50;;;;;;4461651;32;19978;-73
2022/12/24 02:48:51;;;;;;;;;;;17.90;65.50;;;;;;4462207;32;20022;-73
2022/12/24 02:51:20;;;;;;;;;;;17.90;65.40;;;;;;4462036;32;20092;-72
2022/12/24 02:53:46;;;;;;;;;;;17.90;65.50;;;;;;4461695;32;20017;-73
2022/12/24 02:56:15;;;;;;;;;;;17.90;65.50;;;;;;4450989;32;20300;-73
2022/12/24 02:58:41;;;;;;;;;;;17.90;65.50;;;;;;4448571;32;19979;-72
2022/12/24 03:01:15;;;;;;;;;;;17.90;65.50;;;;;;4450926;32;20029;-72
2022/12/24 03:03:47;;;;;;;;;;;17.90;65.40;;;;;;4449048;32;19986;-72
2022/12/24 03:06:22;;;;;;;;;;;17.90;65.60;;;;;;4451158;32;19998;-72
2022/12/24 03:08:54;;;;;;;;;;;17.90;65.70;;;;;;4448498;32;20400;-73
2022/12/24 03:11:19;;;;;;;;;;;17.90;65.70;;;;;;4456206;32;19989;-73
2022/12/24 03:13:46;;;;;;;;;;;17.90;65.80;;;;;;4461486;32;20288;-73
2022/12/24 03:16:14;;;;;;;;;;;17.90;65.80;;;;;;4461506;32;20033;-72
2022/12/24 03:18:43;;;;;;;;;;;17.90;65.70;;;;;;4461711;32;19982;-72
2022/12/24 03:21:10;;;;;;;;;;;17.90;65.90;;;;;;4447681;32;19978;-72
2022/12/24 03:23:36;;;;;;;;;;;17.90;65.90;;;;;;4461293;32;20412;-73
2022/12/24 03:26:05;;;;;;;;;;;17.90;65.90;;;;;;4446956;32;20045;-73
2022/12/24 03:28:36;;;;;;;;;;;17.80;65.80;;;;;;4460184;32;20396;-73
2022/12/24 03:31:03;;;;;;;;;;;17.80;65.70;;;;;;4458683;32;19997;-73
2022/12/24 03:33:29;;;;;;;;;;;17.80;65.70;;;;;;4457507;32;20316;-72
2022/12/24 03:35:54;;;;;;;;;;;17.90;65.80;;;;;;4459391;32;19974;-73
2022/12/24 03:38:20;;;;;;;;;;;17.80;65.70;;;;;;4458763;32;19978;-73
2022/12/24 03:40:46;;;;;;;;;;;17.80;65.70;;;;;;4460094;32;20359;-73
2022/12/24 03:43:12;;;;;;;;;;;17.80;65.70;;;;;;4458900;32;20095;-73
2022/12/24 03:45:37;;;;;;;;;;;17.80;65.70;;;;;;4459204;32;19977;-73
2022/12/24 03:48:03;;;;;;;;;;;17.80;65.70;;;;;;4459031;32;19974;-72
2022/12/24 03:50:29;;;;;;;;;;;17.80;65.70;;;;;;4458209;32;20059;-73
2022/12/24 03:52:55;;;;;;;;;;;17.80;65.70;;;;;;4459054;32;20383;-72
2022/12/24 03:55:21;;;;;;;;;;;17.80;65.70;;;;;;4458769;32;20027;-73
2022/12/24 03:57:47;;;;;;;;;;;17.80;65.70;;;;;;4457279;32;20006;-73
2022/12/24 04:00:13;;;;;;;;;;;17.70;65.70;;;;;;4456675;32;20097;-72
2022/12/24 04:02:39;;;;;;;;;;;17.70;65.70;;;;;;4457423;32;20013;-73
2022/12/24 04:05:05;;;;;;;;;;;17.70;65.90;;;;;;4460080;32;20311;-73
2022/12/24 04:07:32;;;;;;;;;;;17.70;65.70;;;;;;4456826;32;19985;-73
2022/12/24 04:09:57;;;;;;;;;;;17.70;66.50;;;;;;4449862;32;20450;-73
2022/12/24 04:12:23;;;;;;;;;;;17.70;65.70;;;;;;4457403;32;19978;-73
2022/12/24 04:14:49;;;;;;;;;;;17.70;65.70;;;;;;4459661;32;20415;-73
2022/12/24 04:17:15;;;;;;;;;;;17.70;65.70;;;;;;4459004;32;20326;-73
2022/12/24 04:19:41;;;;;;;;;;;17.70;65.60;;;;;;4460667;32;20011;-72
2022/12/24 04:22:07;;;;;;;;;;;17.70;65.70;;;;;;4463801;32;20431;-72
2022/12/24 04:24:33;;;;;;;;;;;17.70;65.70;;;;;;4463473;32;19970;-73
2022/12/24 04:26:59;;;;;;;;;;;17.70;65.70;;;;;;4463229;32;20119;-73
2022/12/24 04:29:24;;;;;;;;;;;17.70;65.60;;;;;;4463380;32;19974;-72
2022/12/24 04:31:50;;;;;;;;;;;17.70;65.60;;;;;;4463752;32;20006;-72
2022/12/24 04:34:16;;;;;;;;;;;17.70;65.60;;;;;;4463511;32;19982;-73
2022/12/24 04:36:43;;;;;;;;;;;17.70;65.60;;;;;;4463587;32;19988;-72
2022/12/24 04:39:09;;;;;;;;;;;17.60;65.60;;;;;;4463396;32;19974;-73
2022/12/24 04:41:36;;;;;;;;;;;17.70;65.60;;;;;;4449295;32;20004;-72
2022/12/24 04:44:02;;;;;;;;;;;17.60;65.50;;;;;;4463363;32;20377;-73
2022/12/24 04:46:29;;;;;;;;;;;17.60;65.50;;;;;;4463175;32;20037;-73
2022/12/24 04:48:55;;;;;;;;;;;17.60;65.50;;;;;;4463419;32;19970;-73
2022/12/24 04:51:21;;;;;;;;;;;17.60;65.50;;;;;;4463188;32;20056;-73
2022/12/24 04:53:48;;;;;;;;;;;17.60;65.50;;;;;;4463231;32;20026;-73
2022/12/24 04:56:15;;;;;;;;;;;17.60;65.60;;;;;;4462965;32;19990;-73
2022/12/24 04:58:41;;;;;;;;;;;17.60;65.50;;;;;;4462624;32;19984;-73
2022/12/24 05:01:09;;;;;;;;;;;17.60;65.60;;;;;;4462938;32;20014;-72
2022/12/24 05:03:35;;;;;;;;;;;17.60;65.60;;;;;;4462691;32;20466;-73
2022/12/24 05:06:05;;;;;;;;;;;17.60;65.60;;;;;;4462705;32;19990;-72
2022/12/24 05:08:31;;;;;;;;;;;17.60;65.60;;;;;;4462778;32;20009;-72
2022/12/24 05:10:59;;;;;;;;;;;17.60;65.50;;;;;;4463144;32;20391;-72
2022/12/24 05:13:25;;;;;;;;;;;17.60;65.60;;;;;;4462810;32;20056;-72
2022/12/24 05:15:51;;;;;;;;;;;17.60;65.60;;;;;;4462928;32;19978;-72
2022/12/24 05:18:17;;;;;;;;;;;17.60;65.70;;;;;;4462752;32;20006;-72
2022/12/24 05:20:47;;;;;;;;;;;17.50;65.60;;;;;;4462598;32;20108;-73
2022/12/24 05:28:44;;;;;;;;;;;17.50;65.70;;;;;;4462401;32;20309;-73
2022/12/24 05:31:09;;;;;;;;;;;17.50;65.70;;;;;;4462543;32;20025;-72
2022/12/24 05:33:35;;;;;;;;;;;17.50;65.70;;;;;;4462502;32;20475;-72
2022/12/24 05:36:01;;;;;;;;;;;17.50;65.70;;;;;;4462648;32;19997;-73
2022/12/24 05:38:27;;;;;;;;;;;17.50;65.70;;;;;;4462553;32;20562;-73
2022/12/24 05:40:53;;;;;;;;;;;17.50;65.70;;;;;;4448568;32;20423;-72
2022/12/24 05:43:18;;;;;;;;;;;17.50;65.70;;;;;;4462287;32;19985;-72
2022/12/24 05:45:44;;;;;;;;;;;17.50;65.70;;;;;;4462540;32;19982;-72
2022/12/24 05:48:11;;;;;;;;;;;17.50;65.70;;;;;;4462280;32;19985;-72
2022/12/24 05:50:40;;;;;;;;;;;17.50;65.80;;;;;;4462555;32;20009;-73
2022/12/24 05:53:06;;;;;;;;;;;17.40;65.80;;;;;;4462133;32;19982;-72
2022/12/24 05:55:32;;;;;;;;;;;17.40;65.70;;;;;;4462224;32;19966;-72
2022/12/24 05:57:58;;;;;;;;;;;17.50;65.80;;;;;;4462084;32;20056;-73
2022/12/24 06:00:24;;;;;;;;;;;17.40;65.70;;;;;;4462051;32;19990;-72
2022/12/24 06:02:50;;;;;;;;;;;17.50;65.80;;;;;;4462374;32;20491;-72
2022/12/24 06:05:16;;;;;;;;;;;17.40;65.70;;;;;;4462098;32;20371;-73
2022/12/24 06:07:42;;;;;;;;;;;17.40;65.70;;;;;;4448278;32;19978;-73
2022/12/24 06:10:12;;;;;;;;;;;17.40;65.70;;;;;;4461862;32;19989;-72
2022/12/24 06:12:38;;;;;;;;;;;17.40;65.80;;;;;;4462242;32;20009;-73
2022/12/24 06:15:04;;;;;;;;;;;17.40;65.70;;;;;;4461957;32;20047;-72
2022/12/24 06:17:30;;;;;;;;;;;17.40;65.80;;;;;;4462130;32;19970;-72
2022/12/24 06:19:56;;;;;;;;;;;17.40;65.80;;;;;;4447971;32;19970;-72
2022/12/24 06:22:22;;;;;;;;;;;17.40;65.80;;;;;;4461771;32;19974;-72
2022/12/24 06:25:02;;;;;;;;;;;17.40;65.80;;;;;;4462196;32;19970;-72
2022/12/24 06:27:27;;;;;;;;;;;17.40;65.80;;;;;;4461283;32;20071;-73
2022/12/24 06:29:53;;;;;;;;;;;17.40;65.80;;;;;;4461572;32;19974;-72
2022/12/24 06:32:19;;;;;;;;;;;17.40;65.90;;;;;;4461854;32;20020;-72
2022/12/24 06:34:45;;;;;;;;;;;17.40;65.90;;;;;;4461554;32;20431;-72
2022/12/24 06:37:17;;;;;;;;;;;17.40;65.90;;;;;;4461771;32;20021;-72
2022/12/24 06:39:44;;;;;;;;;;;17.40;65.90;;;;;;4461465;32;19970;-72
2022/12/24 06:42:09;;;;;;;;;;;17.40;66.00;;;;;;4461872;32;19982;-73
2022/12/24 06:44:35;;;;;;;;;;;17.30;65.90;;;;;;4461374;32;19977;-73
2022/12/24 06:47:01;;;;;;;;;;;17.40;66.00;;;;;;4461565;32;20396;-73
2022/12/24 06:49:43;;;;;;;;;;;17.30;65.90;;;;;;4461325;32;20060;-72
2022/12/24 06:52:09;;;;;;;;;;;17.30;65.90;;;;;;4461676;32;19982;-73
2022/12/24 06:54:34;;;;;;;;;;;17.30;65.90;;;;;;4461556;32;20096;-73
2022/12/24 06:57:00;;;;;;;;;;;17.30;66.00;;;;;;4460988;32;20064;-72
2022/12/24 06:59:26;;;;;;;;;;;17.30;66.00;;;;;;4461267;32;20092;-73
2022/12/24 07:01:52;;;;;;;;;;;17.30;65.90;;;;;;4461125;32;19974;-72
2022/12/24 07:04:18;;;;;;;;;;;17.30;66.00;;;;;;4461282;32;20006;-73
2022/12/24 07:06:47;;;;;;;;;;;17.30;66.00;;;;;;4461067;32;20399;-72
2022/12/24 07:09:14;;;;;;;;;;;17.30;66.00;;;;;;4461140;32;19978;-73
2022/12/24 07:11:40;;;;;;;;;;;17.30;66.00;;;;;;4460938;32;19967;-73
2022/12/24 07:14:06;;;;;;;;;;;17.20;65.90;;;;;;4461191;32;20388;-73
2022/12/24 07:16:32;;;;;;;;;;;17.30;66.00;;;;;;4461226;32;20037;-73
2022/12/24 07:18:57;;;;;;;;;;;17.30;65.90;;;;;;4460899;32;20017;-73
2022/12/24 07:21:23;;;;;;;;;;;17.30;65.90;;;;;;4461443;32;20056;-73
2022/12/24 07:23:50;;;;;;;;;;;17.30;65.90;;;;;;4461167;32;19998;-73
2022/12/24 07:26:16;;;;;;;;;;;17.30;65.80;;;;;;4460914;32;19963;-73
2022/12/24 07:28:42;;;;;;;;;;;17.30;65.80;;;;;;4460759;32;20025;-73
2022/12/24 07:31:08;;;;;;;;;;;17.30;65.60;;;;;;4460871;32;20159;-73
2022/12/24 07:33:33;;;;;;;;;;;17.40;65.60;;;;;;4460960;32;19997;-73
2022/12/24 07:36:04;;;;;;;;;;;17.40;65.50;;;;;;4460898;32;20043;-73
2022/12/24 07:38:30;;;;;;;;;;;17.40;65.40;;;;;;4461059;32;19978;-74
2022/12/24 07:40:56;;;;;;;;;;;17.40;65.40;;;;;;4460663;32;19974;-73
2022/12/24 07:43:22;;;;;;;;;;;17.40;65.30;;;;;;4460761;32;19993;-73
2022/12/24 07:45:48;;;;;;;;;;;17.50;65.30;;;;;;4446956;32;20010;-73
2022/12/24 07:48:14;;;;;;;;;;;17.50;65.40;;;;;;4460627;32;20406;-73
2022/12/24 07:50:40;;;;;;;;;;;17.50;65.30;;;;;;4461032;32;19981;-73
2022/12/24 07:53:06;;;;;;;;;;;17.50;65.30;;;;;;4460481;32;20160;-73
2022/12/24 07:55:31;;;;;;;;;;;17.50;65.30;;;;;;4446675;32;20033;-73
2022/12/24 07:57:57;;;;;;;;;;;17.50;65.20;;;;;;4460430;32;20032;-74
2022/12/24 08:00:23;;;;;;;;;;;17.50;65.20;;;;;;4460614;32;19966;-74
2022/12/24 08:02:49;;;;;;;;;;;17.50;65.20;;;;;;4460906;32;20061;-74
2022/12/24 08:05:14;;;;;;;;;;;17.50;65.10;;;;;;4446670;32;20032;-73
2022/12/24 08:07:41;;;;;;;;;;;17.60;65.10;;;;;;4460771;32;19978;-73
2022/12/24 08:10:07;;;;;;;;;;;17.60;65.10;;;;;;4460519;32;19962;-74
2022/12/24 08:12:37;;;;;;;;;;;17.60;65.10;;;;;;4460811;32;19994;-75
2022/12/24 08:15:04;;;;;;;;;;;17.60;65.50;;;;;;4460643;32;19963;-76
2022/12/24 08:17:29;;;;;;;;;;;17.60;65.50;;;;;;4460804;32;20388;-76
2022/12/24 08:19:55;;;;;;;;;;;17.60;65.60;;;;;;4460705;32;19963;-76
2022/12/24 08:22:21;;;;;;;;;;;17.60;65.50;;;;;;4460453;32;19970;-76
2022/12/24 08:24:48;;;;;;;;;;;17.70;65.10;;;;;;4460714;32;20036;-75
2022/12/24 08:27:14;;;;;;;;;;;17.80;65.00;;;;;;4460534;32;19974;-76
2022/12/24 08:29:40;;;;;;;;;;;17.90;64.80;;;;;;4460122;32;20292;-76
2022/12/24 08:32:05;;;;;;;;;;;18.10;64.70;;;;;;4460481;32;19970;-76
2022/12/24 08:34:31;;;;;;;;;;;18.20;64.40;;;;;;4460439;32;19963;-76
2022/12/24 08:37:00;;;;;;;;;;;18.40;64.20;;;;;;4460525;32;19992;-76
2022/12/24 08:39:30;;;;;;;;;;;18.50;63.80;;;;;;4460430;32;20486;-76
2022/12/24 08:41:56;;;;;;;;;;;18.70;63.50;;;;;;4460695;32;20104;-76
2022/12/24 08:44:22;;;;;;;;;;;18.90;63.20;;;;;;4460129;32;20383;-75
2022/12/24 08:46:48;;;;;;;;;;;19.00;62.90;;;;;;4459459;32;20002;-75
2022/12/24 08:49:16;;;;;;;;;;;19.20;62.60;;;;;;4459784;32;19982;-75
2022/12/24 08:51:42;;;;;;;;;;;19.30;62.40;;;;;;4455607;32;19989;-76
2022/12/24 08:54:07;;;;;;;;;;;19.40;62.10;;;;;;4457906;32;20434;-77
2022/12/24 08:56:33;;;;;;;;;;;19.50;62.00;;;;;;4456864;32;20009;-77
2022/12/24 08:59:00;;;;;;;;;;;19.50;61.80;;;;;;4459730;32;19981;-78
2022/12/24 09:01:26;;;;;;;;;;;19.50;61.70;;;;;;4462059;32;19986;-77
2022/12/24 09:03:53;;;;;;;;;;;19.60;61.60;;;;;;4458935;32;20032;-77
2022/12/24 09:06:18;;;;;;;;;;;19.60;61.50;;;;;;4447018;32;20105;-77
2022/12/24 09:08:45;;;;;;;;;;;19.60;61.50;;;;;;4459823;32;19970;-77
2022/12/24 09:11:13;;;;;;;;;;;19.60;61.50;;;;;;4461451;32;19989;-81
2022/12/24 09:13:39;;;;;;;;;;;19.60;61.40;;;;;;4453369;32;20127;-77
2022/12/24 09:16:05;;;;;;;;;;;19.60;61.40;;;;;;4453849;32;19986;-77
2022/12/24 09:18:30;;;;;;;;;;;19.60;61.30;;;;;;4454597;32;20319;-76
2022/12/24 09:21:00;;;;;;;;;;;19.60;61.30;;;;;;4459571;32;19982;-76
2022/12/24 09:23:26;;;;;;;;;;;19.70;61.20;;;;;;4455213;32;19970;-76
2022/12/24 09:25:53;;;;;;;;;;;19.70;61.10;;;;;;4447691;32;19993;-77
2022/12/24 09:28:19;;;;;;;;;;;19.70;61.10;;;;;;4447332;32;19974;-76
2022/12/24 09:30:53;;;;;;;;;;;19.70;61.10;;;;;;4447804;32;19999;-76
2022/12/24 09:33:23;;;;;;;;;;;19.70;61.00;;;;;;4459919;32;20050;-77
2022/12/24 09:35:52;;;;;;;;;;;19.70;61.10;;;;;;4460437;32;19981;-77
2022/12/24 09:38:18;;;;;;;;;;;19.80;61.10;;;;;;4452020;32;19982;-77
2022/12/24 09:40:45;;;;;;;;;;;19.80;61.20;;;;;;4455004;32;19974;-78
2022/12/24 09:43:13;;;;;;;;;;;19.80;61.20;;;;;;4456870;32;20427;-77
2022/12/24 09:45:43;;;;;;;;;;;19.80;61.20;;;;;;4458571;32;19993;-78
2022/12/24 09:48:14;;;;;;;;;;;19.90;61.30;;;;;;4456422;32;20387;-77
2022/12/24 09:50:50;;;;;;;;;;;19.90;61.40;;;;;;4457531;32;19974;-78
2022/12/24 09:53:23;;;;;;;;;;;19.90;61.60;;;;;;4455970;32;20116;-78
2022/12/24 09:56:05;;;;;;;;;;;19.90;61.70;;;;;;4453779;32;19982;-77
2022/12/24 09:58:53;;;;;;;;;;;19.80;61.70;;;;;;4458404;32;19982;-76
2022/12/24 10:01:19;;;;;;;;;;;19.80;61.90;;;;;;4460065;32;20120;-75
2022/12/24 10:03:46;;;;;;;;;;;19.80;62.00;;;;;;4459397;32;20013;-75
2022/12/24 10:06:14;;;;;;;;;;;19.80;62.20;;;;;;4461046;32;20296;-75
2022/12/24 10:09:00;;;;;;;;;;;19.80;62.20;;;;;;4459225;32;19989;-75
2022/12/24 10:11:42;;;;;;;;;;;19.80;62.20;;;;;;4428737;32;19982;-74
2022/12/24 10:14:19;;;;;;;;;;;19.80;62.20;;;;;;4460235;32;20017;-75
2022/12/24 10:17:03;;;;;;;;;;;19.80;62.20;;;;;;4459523;32;20326;-74
2022/12/24 10:19:31;;;;;;;;;;;19.80;62.30;;;;;;4460840;32;20040;-74
2022/12/24 10:22:15;;;;;;;;;;;19.90;62.30;;;;;;4459754;32;19985;-75
2022/12/24 10:24:44;;;;;;;;;;;19.90;62.40;;;;;;4445069;32;20127;-74
2022/12/24 10:27:14;;;;;;;;;;;19.90;62.40;;;;;;4459677;32;19986;-75
2022/12/24 10:29:46;;;;;;;;;;;19.90;62.40;;;;;;4458912;32;19997;-75
2022/12/24 10:32:20;;;;;;;;;;;19.90;62.50;;;;;;4459453;32;19974;-75
2022/12/24 10:35:06;;;;;;;;;;;19.90;62.50;;;;;;4459694;32;20045;-74
2022/12/24 10:37:32;;;;;;;;;;;19.90;62.50;;;;;;4436788;32;19982;-74
2022/12/24 10:39:58;;;;;;;;;;;19.90;62.60;;;;;;4460686;32;20043;-74
2022/12/24 10:42:35;;;;;;;;;;;19.80;62.60;;;;;;4459183;32;20300;-75
2022/12/24 10:45:12;;;;;;;;;;;19.80;62.70;;;;;;4457963;32;20404;-74
2022/12/24 10:47:39;;;;;;;;;;;19.80;62.70;;;;;;4459385;32;20080;-75
2022/12/24 10:50:12;;;;;;;;;;;19.80;62.70;;;;;;4458687;32;20059;-75
2022/12/24 10:52:40;;;;;;;;;;;19.80;62.80;;;;;;4460116;32;19978;-75
2022/12/24 10:55:06;;;;;;;;;;;19.80;62.90;;;;;;4457310;32;19982;-75
2022/12/24 10:57:32;;;;;;;;;;;19.80;63.20;;;;;;4457006;32;19970;-75
2022/12/24 10:59:58;;;;;;;;;;;19.80;62.90;;;;;;4459053;32;20471;-75
2022/12/24 11:02:29;;;;;;;;;;;19.80;62.90;;;;;;4460284;32;19989;-76
2022/12/24 11:04:55;;;;;;;;;;;19.80;63.00;;;;;;4459600;32;19970;-75
2022/12/24 11:07:22;;;;;;;;;;;19.80;63.00;;;;;;4459058;32;19978;-75
2022/12/24 11:10:00;;;;;;;;;;;19.80;63.00;;;;;;4453755;32;20116;-75
2022/12/24 11:12:44;;;;;;;;;;;19.90;63.10;;;;;;4455990;32;19983;-75
2022/12/24 11:15:13;;;;;;;;;;;19.90;63.10;;;;;;4452415;32;19989;-75
2022/12/24 11:17:42;;;;;;;;;;;19.80;63.10;;;;;;4449120;32;20339;-75
2022/12/24 11:20:19;;;;;;;;;;;19.80;63.20;;;;;;4456978;32;20012;-75
2022/12/24 11:22:48;;;;;;;;;;;19.80;63.20;;;;;;4446939;32;19970;-75
2022/12/24 11:25:24;;;;;;;;;;;19.70;63.30;;;;;;4461209;32;19978;-75
2022/12/24 11:27:51;;;;;;;;;;;19.70;63.50;;;;;;4461061;32;20008;-67
2022/12/24 11:30:18;;;;;;;;;;;19.60;64.60;;;;;;4461544;32;19970;-67
2022/12/24 11:32:49;;;;;;;;;;;19.50;63.70;;;;;;4460876;32;20063;-75
2022/12/24 11:35:17;;;;;;;;;;;19.50;63.70;;;;;;4461009;32;19974;-76
2022/12/24 11:37:44;;;;;;;;;;;19.50;63.70;;;;;;4460884;32;20056;-75
2022/12/24 11:40:21;;;;;;;;;;;19.50;63.60;;;;;;4460253;32;19982;-76
2022/12/24 11:42:51;;;;;;;;;;;19.60;63.50;;;;;;4459756;32;19994;-74
2022/12/24 11:45:26;;;;;;;;;;;19.70;63.40;;;;;;4457975;32;20400;-75
2022/12/24 11:47:56;;;;;;;;;;;19.70;63.20;;;;;;4444515;32;20033;-74
2022/12/24 11:50:31;;;;;;;;;;;19.80;63.10;;;;;;4458802;32;20112;-74
2022/12/24 11:53:14;;;;;;;;;;;19.90;63.00;;;;;;4458506;32;20044;-74
2022/12/24 11:55:44;;;;;;;;;;;19.90;63.00;;;;;;4459168;32;20404;-75
2022/12/24 11:58:25;;;;;;;;;;;20.00;63.00;;;;;;4459623;32;20092;-74
2022/12/24 12:00:54;;;;;;;;;;;20.00;63.00;;;;;;4458215;32;19982;-75
2022/12/24 12:03:29;;;;;;;;;;;20.00;63.00;;;;;;4456954;32;20432;-74
2022/12/24 12:05:57;;;;;;;;;;;20.00;63.00;;;;;;4455974;32;19970;-75
2022/12/24 12:08:24;;;;;;;;;;;20.00;63.10;;;;;;4455778;32;19974;-76
2022/12/24 12:10:51;;;;;;;;;;;20.00;63.20;;;;;;4454769;32;20045;-75
2022/12/24 12:13:19;;;;;;;;;;;20.00;63.20;;;;;;4456888;32;20403;-76
2022/12/24 12:15:50;;;;;;;;;;;20.00;63.30;;;;;;4456989;32;19986;-75
2022/12/24 12:18:21;;;;;;;;;;;20.00;63.30;;;;;;4456867;32;20104;-76
2022/12/24 12:20:51;;;;;;;;;;;20.00;63.40;;;;;;4457349;32;20351;-75
2022/12/24 12:23:36;;;;;;;;;;;20.10;64.30;;;;;;4460966;32;20014;-76
2022/12/24 12:26:02;;;;;;;;;;;20.10;63.50;;;;;;4457586;32;20065;-77
2022/12/24 12:28:43;;;;;;;;;;;20.10;63.50;;;;;;4462048;32;20089;-76
2022/12/24 12:31:08;;;;;;;;;;;20.00;63.50;;;;;;4451731;32;20147;-77
2022/12/24 12:33:38;;;;;;;;;;;20.00;63.50;;;;;;4462119;32;20052;-76
2022/12/24 12:36:05;;;;;;;;;;;20.00;63.50;;;;;;4461244;32;19974;-75
2022/12/24 12:38:31;;;;;;;;;;;20.00;63.50;;;;;;4462771;32;19993;-75
2022/12/24 12:40:57;;;;;;;;;;;20.00;63.60;;;;;;4460690;32;20053;-75
2022/12/24 12:43:29;;;;;;;;;;;20.10;63.60;;;;;;4459527;32;20072;-75
2022/12/24 12:46:05;;;;;;;;;;;20.00;63.60;;;;;;4461440;32;19966;-77
2022/12/24 12:48:41;;;;;;;;;;;20.00;63.60;;;;;;4461178;32;19978;-76
2022/12/24 12:51:09;;;;;;;;;;;20.00;63.50;;;;;;4462398;32;20315;-76
2022/12/24 12:53:41;;;;;;;;;;;20.00;63.60;;;;;;4461976;32;19988;-76
2022/12/24 12:56:31;;;;;;;;;;;20.00;63.60;;;;;;4449648;32;19985;-78
2022/12/24 12:59:09;;;;;;;;;;;20.00;63.60;;;;;;4460821;32;20443;-77
2022/12/24 13:01:45;;;;;;;;;;;20.00;63.50;;;;;;4460077;32;19970;-76
2022/12/24 13:04:17;;;;;;;;;;;20.00;63.50;;;;;;4461037;32;20063;-75
2022/12/24 13:06:55;;;;;;;;;;;20.00;63.50;;;;;;4461153;32;19990;-76
2022/12/24 13:09:21;;;;;;;;;;;20.10;63.60;;;;;;4461943;32;19982;-76
2022/12/24 13:12:02;;;;;;;;;;;20.10;63.60;;;;;;4459318;32;20404;-76
2022/12/24 13:14:47;;;;;;;;;;;20.10;63.60;;;;;;4460615;32;20541;-76
2022/12/24 13:17:26;;;;;;;;;;;20.10;63.60;;;;;;4461063;32;20478;-76
2022/12/24 13:20:01;;;;;;;;;;;20.10;63.60;;;;;;4462077;32;20399;-76
2022/12/24 13:22:27;;;;;;;;;;;20.10;63.60;;;;;;4460036;32;20012;-77
2022/12/24 13:24:54;;;;;;;;;;;20.10;63.50;;;;;;4459270;32;20084;-77
2022/12/24 13:27:23;;;;;;;;;;;20.10;63.50;;;;;;4460864;32;20002;-78
2022/12/24 13:30:19;;;;;;;;;;;20.10;63.60;;;;;;4459322;32;20005;-77
2022/12/24 13:32:47;;;;;;;;;;;20.10;63.60;;;;;;4446903;32;19989;-77
2022/12/24 13:35:19;;;;;;;;;;;20.10;63.50;;;;;;4461131;32;20025;-78
2022/12/24 13:37:45;;;;;;;;;;;20.10;63.50;;;;;;4460577;32;20164;-77
2022/12/24 13:40:14;;;;;;;;;;;20.10;63.50;;;;;;4461325;32;20399;-79
2022/12/24 13:42:55;;;;;;;;;;;20.10;63.40;;;;;;4447571;32;20333;-77
2022/12/24 13:45:27;;;;;;;;;;;20.10;63.40;;;;;;4459248;32;19974;-77
2022/12/24 13:47:53;;;;;;;;;;;20.10;63.40;;;;;;4460291;32;20486;-77
2022/12/24 13:50:27;;;;;;;;;;;20.10;63.40;;;;;;4460531;32;20426;-78
2022/12/24 13:52:53;;;;;;;;;;;20.10;63.30;;;;;;4458117;32;20056;-79
2022/12/24 13:55:22;;;;;;;;;;;20.10;63.30;;;;;;4457338;32;19975;-77
2022/12/24 13:57:58;;;;;;;;;;;20.10;63.30;;;;;;4447026;32;20015;-79
2022/12/24 14:00:37;;;;;;;;;;;20.10;63.30;;;;;;4458498;32;19989;-79
2022/12/24 14:03:12;;;;;;;;;;;20.10;63.30;;;;;;4460536;32;20112;-79
2022/12/24 14:05:38;;;;;;;;;;;20.10;63.20;;;;;;4460383;32;20426;-77
2022/12/24 14:08:06;;;;;;;;;;;20.10;63.20;;;;;;4460548;32;19982;-74
2022/12/24 14:10:42;;;;;;;;;;;20.10;63.10;;;;;;4460170;32;20013;-71
2022/12/24 14:13:27;;;;;;;;;;;20.10;63.00;;;;;;4460254;32;20059;-78
2022/12/24 14:15:56;;;;;;;;;;;20.10;62.90;;;;;;4460102;32;19977;-77
2022/12/24 14:18:23;;;;;;;;;;;20.10;62.90;;;;;;4460396;32;19986;-78
2022/12/24 14:20:50;;;;;;;;;;;20.10;62.80;;;;;;4447947;32;20022;-77
2022/12/24 14:23:42;;;;;;;;;;;20.10;62.80;;;;;;4462300;32;19993;-77
2022/12/24 14:26:15;;;;;;;;;;;20.00;62.80;;;;;;4459814;32;20398;-77
2022/12/24 14:28:43;;;;;;;;;;;20.00;62.80;;;;;;4461776;32;20330;-76
2022/12/24 14:31:13;;;;;;;;;;;20.00;62.80;;;;;;4461833;32;19989;-77
2022/12/24 14:33:39;;;;;;;;;;;20.00;62.90;;;;;;4461884;32;20155;-77
2022/12/24 14:36:05;;;;;;;;;;;20.00;62.90;;;;;;4447867;32;20143;-77